createdAt,value
2022-08-17T00:00:57.281Z,45
2022-08-17T00:01:58.294Z,44
2022-08-17T00:02:59.321Z,45
2022-08-17T00:04:00.335Z,46
2022-08-17T00:05:01.354Z,44
2022-08-17T00:06:02.313Z,43
2022-08-17T00:07:03.210Z,44
2022-08-17T00:08:04.274Z,43
2022-08-17T00:09:05.253Z,42
2022-08-17T00:10:06.293Z,42
2022-08-17T00:11:07.293Z,40
2022-08-17T00:12:35.181Z,40
2022-08-17T00:13:09.339Z,40
2022-08-17T00:14:10.305Z,42
2022-08-17T00:15:11.290Z,42
2022-08-17T00:16:12.294Z,42
2022-08-17T00:17:13.273Z,42
2022-08-17T00:18:53.676Z,42
2022-08-17T00:19:15.295Z,40
2022-08-17T00:20:16.314Z,39
2022-08-17T00:21:17.314Z,39
2022-08-17T00:22:33.500Z,40
2022-08-17T00:23:20.334Z,39
2022-08-17T00:24:21.295Z,40
2022-08-17T00:25:22.275Z,39
2022-08-17T00:26:34.787Z,39
2022-08-17T00:27:24.297Z,40
2022-08-17T00:28:25.358Z,40
2022-08-17T00:29:26.312Z,40
2022-08-17T00:30:27.314Z,38
2022-08-17T00:31:28.334Z,39
2022-08-17T00:33:10.648Z,39
2022-08-17T00:33:30.942Z,38
2022-08-17T00:34:31.374Z,39
2022-08-17T00:35:32.313Z,42
2022-08-17T00:36:33.294Z,42
2022-08-17T00:37:34.296Z,42
2022-08-17T00:38:35.334Z,43
2022-08-17T00:39:36.308Z,44
2022-08-17T00:40:39.764Z,44
2022-08-17T00:41:42.625Z,47
2022-08-17T00:42:39.321Z,48
2022-08-17T00:43:40.302Z,46
2022-08-17T00:44:41.330Z,46
2022-08-17T00:45:42.354Z,50
2022-08-17T00:46:43.893Z,47
2022-08-17T00:47:45.281Z,46
2022-08-17T00:48:46.257Z,48
2022-08-17T00:49:47.233Z,47
2022-08-17T00:50:48.333Z,49
2022-08-17T00:51:49.295Z,49
2022-08-17T00:52:50.500Z,48
2022-08-17T00:53:51.249Z,48
2022-08-17T00:54:52.255Z,51
2022-08-17T00:55:53.394Z,49
2022-08-17T00:56:54.255Z,47
2022-08-17T00:57:55.754Z,46
2022-08-17T00:58:56.302Z,45
2022-08-17T01:00:02.055Z,47
2022-08-17T01:04:00.403Z,49
2022-08-17T01:05:01.333Z,51
2022-08-17T01:06:02.454Z,48
2022-08-17T01:07:04.314Z,48
2022-08-17T01:08:05.316Z,51
2022-08-17T01:09:06.314Z,53
2022-08-17T01:10:07.375Z,53
2022-08-17T01:11:08.297Z,53
2022-08-17T01:12:09.323Z,51
2022-08-17T01:13:10.315Z,50
2022-08-17T01:14:11.375Z,52
2022-08-17T01:15:12.475Z,49
2022-08-17T01:16:13.415Z,51
2022-08-17T01:17:14.374Z,51
2022-08-17T01:18:15.315Z,48
2022-08-17T01:19:16.380Z,48
2022-08-17T01:20:17.714Z,48
2022-08-17T01:21:19.359Z,48
2022-08-17T01:22:20.315Z,48
2022-08-17T01:23:21.453Z,48
2022-08-17T01:24:22.314Z,48
2022-08-17T01:25:23.347Z,47
2022-08-17T01:26:24.314Z,47
2022-08-17T01:27:25.355Z,46
2022-08-17T01:28:33.732Z,46
2022-08-17T01:29:27.334Z,46
2022-08-17T01:30:54.206Z,45
2022-08-17T01:31:29.294Z,45
2022-08-17T01:32:30.401Z,45
2022-08-17T01:33:31.334Z,44
2022-08-17T01:34:35.107Z,44
2022-08-17T01:35:33.314Z,44
2022-08-17T01:36:34.334Z,45
2022-08-17T01:37:35.440Z,44
2022-08-17T01:38:36.334Z,45
2022-08-17T01:39:37.426Z,44
2022-08-17T01:40:38.375Z,45
2022-08-17T01:41:39.363Z,44
2022-08-17T01:42:40.315Z,44
2022-08-17T01:43:41.362Z,44
2022-08-17T01:44:42.278Z,44
2022-08-17T01:45:43.315Z,43
2022-08-17T01:46:44.477Z,43
2022-08-17T01:47:45.379Z,42
2022-08-17T01:48:46.315Z,43
2022-08-17T01:49:47.297Z,43
2022-08-17T01:50:48.325Z,42
2022-08-17T01:51:49.350Z,40
2022-08-17T01:52:50.486Z,40
2022-08-17T01:53:51.409Z,42
2022-08-17T01:54:52.375Z,42
2022-08-17T01:55:53.298Z,40
2022-08-17T01:56:54.315Z,40
2022-08-17T01:57:55.374Z,40
2022-08-17T01:58:56.402Z,42
2022-08-17T01:59:57.334Z,42
2022-08-17T02:01:00.357Z,42
2022-08-17T02:01:59.398Z,40
2022-08-17T02:03:00.355Z,39
2022-08-17T02:04:01.942Z,39
2022-08-17T02:05:02.475Z,40
2022-08-17T02:06:05.150Z,40
2022-08-17T02:07:05.356Z,40
2022-08-17T02:08:06.356Z,39
2022-08-17T02:09:07.355Z,39
2022-08-17T02:10:10.980Z,39
2022-08-17T02:11:11.451Z,40
2022-08-17T02:12:38.643Z,42
2022-08-17T02:13:11.414Z,40
2022-08-17T02:14:12.414Z,40
2022-08-17T02:15:13.355Z,40
2022-08-17T02:16:14.375Z,40
2022-08-17T02:17:15.348Z,39
2022-08-17T02:18:16.596Z,40
2022-08-17T02:19:18.394Z,42
2022-08-17T02:20:41.447Z,39
2022-08-17T02:21:20.354Z,40
2022-08-17T02:22:21.374Z,40
2022-08-17T02:23:22.357Z,40
2022-08-17T02:24:59.283Z,42
2022-08-17T02:25:24.375Z,39
2022-08-17T02:26:25.975Z,39
2022-08-17T02:27:26.405Z,40
2022-08-17T02:28:27.374Z,40
2022-08-17T02:29:28.394Z,40
2022-08-17T02:30:49.969Z,43
2022-08-17T02:31:30.377Z,42
2022-08-17T02:32:31.355Z,43
2022-08-17T02:33:42.331Z,43
2022-08-17T02:34:33.355Z,42
2022-08-17T02:35:34.394Z,43
2022-08-17T02:36:35.382Z,42
2022-08-17T02:37:36.435Z,42
2022-08-17T02:38:37.436Z,42
2022-08-17T02:39:38.515Z,42
2022-08-17T02:40:39.378Z,40
2022-08-17T02:41:40.422Z,42
2022-08-17T02:42:41.434Z,40
2022-08-17T02:43:42.419Z,42
2022-08-17T02:44:43.396Z,43
2022-08-17T02:45:44.403Z,42
2022-08-17T02:46:45.455Z,42
2022-08-17T02:47:46.434Z,43
2022-08-17T02:48:47.402Z,42
2022-08-17T02:49:54.509Z,42
2022-08-17T02:50:49.374Z,40
2022-08-17T02:51:50.455Z,42
2022-08-17T02:52:55.268Z,44
2022-08-17T02:53:52.474Z,44
2022-08-17T02:54:53.414Z,43
2022-08-17T02:55:54.396Z,45
2022-08-17T02:56:55.471Z,46
2022-08-17T02:57:56.354Z,45
2022-08-17T02:58:57.395Z,45
2022-08-17T02:59:58.395Z,45
2022-08-17T03:00:59.354Z,46
2022-08-17T03:02:00.470Z,46
2022-08-17T03:03:01.402Z,47
2022-08-17T03:04:02.375Z,47
2022-08-17T03:05:03.415Z,48
2022-08-17T03:06:04.434Z,49
2022-08-17T03:07:05.414Z,47
2022-08-17T03:08:06.435Z,47
2022-08-17T03:09:07.414Z,48
2022-08-17T03:10:08.414Z,48
2022-08-17T03:11:09.414Z,48
2022-08-17T03:12:10.403Z,48
2022-08-17T03:13:11.436Z,49
2022-08-17T03:14:12.595Z,48
2022-08-17T03:15:14.395Z,49
2022-08-17T03:16:15.394Z,48
2022-08-17T03:17:16.985Z,48
2022-08-17T03:18:19.065Z,49
2022-08-17T03:19:18.454Z,49
2022-08-17T03:20:19.404Z,49
2022-08-17T03:21:20.374Z,50
2022-08-17T03:22:35.721Z,49
2022-08-17T03:23:23.872Z,50
2022-08-17T03:24:25.124Z,51
2022-08-17T03:25:24.374Z,51
2022-08-17T03:26:25.414Z,51
2022-08-17T03:27:26.439Z,51
2022-08-17T03:28:27.794Z,50
2022-08-17T03:29:29.414Z,51
2022-08-17T03:30:30.456Z,47
2022-08-17T03:31:31.416Z,47
2022-08-17T03:32:32.603Z,47
2022-08-17T03:33:34.574Z,47
2022-08-17T03:34:36.435Z,48
2022-08-17T03:35:37.397Z,48
2022-08-17T03:36:38.395Z,47
2022-08-17T03:37:39.394Z,47
2022-08-17T03:38:40.434Z,45
2022-08-17T03:39:41.461Z,46
2022-08-17T03:40:56.069Z,45
2022-08-17T03:41:43.474Z,45
2022-08-17T03:42:44.475Z,46
2022-08-17T03:43:45.396Z,44
2022-08-17T03:44:46.474Z,44
2022-08-17T03:45:47.394Z,44
2022-08-17T03:46:48.475Z,46
2022-08-17T03:47:49.454Z,46
2022-08-17T03:48:50.415Z,46
2022-08-17T03:49:51.415Z,46
2022-08-17T03:50:52.515Z,44
2022-08-17T03:51:53.414Z,45
2022-08-17T03:52:54.482Z,46
2022-08-17T03:53:55.462Z,46
2022-08-17T03:54:56.438Z,45
2022-08-17T03:55:57.442Z,45
2022-08-17T03:56:58.534Z,47
2022-08-17T03:57:59.476Z,46
2022-08-17T03:59:00.456Z,48
2022-08-17T04:00:01.498Z,48
2022-08-17T04:01:02.481Z,48
2022-08-17T04:02:03.475Z,47
2022-08-17T04:03:04.475Z,49
2022-08-17T04:04:05.435Z,50
2022-08-17T04:05:06.456Z,53
2022-08-17T04:06:07.415Z,53
2022-08-17T04:07:08.447Z,52
2022-08-17T04:08:09.436Z,54
2022-08-17T04:09:10.435Z,56
2022-08-17T04:10:11.414Z,52
2022-08-17T04:11:12.445Z,54
2022-08-17T04:12:13.475Z,52
2022-08-17T04:13:14.455Z,52
2022-08-17T04:14:15.376Z,51
2022-08-17T04:15:16.516Z,52
2022-08-17T04:16:17.400Z,53
2022-08-17T04:17:18.461Z,50
2022-08-17T04:18:19.714Z,51
2022-08-17T04:19:21.454Z,49
2022-08-17T04:20:22.437Z,48
2022-08-17T04:21:23.374Z,48
2022-08-17T04:22:31.542Z,49
2022-08-17T04:23:25.455Z,50
2022-08-17T04:24:26.415Z,48
2022-08-17T04:25:27.454Z,46
2022-08-17T04:26:52.395Z,48
2022-08-17T04:27:29.522Z,50
2022-08-17T04:28:30.415Z,48
2022-08-17T04:29:48.750Z,48
2022-08-17T04:30:32.514Z,46
2022-08-17T04:31:34.574Z,46
2022-08-17T04:32:59.262Z,46
2022-08-17T04:33:36.455Z,46
2022-08-17T04:34:37.416Z,46
2022-08-17T04:35:38.484Z,45
2022-08-17T04:36:39.494Z,45
2022-08-17T04:37:40.435Z,45
2022-08-17T04:38:41.436Z,45
2022-08-17T04:39:42.547Z,43
2022-08-17T04:40:43.436Z,44
2022-08-17T04:41:44.535Z,43
2022-08-17T04:42:45.476Z,42
2022-08-17T04:43:46.495Z,43
2022-08-17T04:44:47.474Z,43
2022-08-17T04:45:51.362Z,43
2022-08-17T04:46:49.537Z,43
2022-08-17T04:47:50.476Z,43
2022-08-17T04:48:51.455Z,43
2022-08-17T04:49:52.517Z,43
2022-08-17T04:50:53.497Z,43
2022-08-17T04:51:56.362Z,43
2022-08-17T04:52:55.746Z,44
2022-08-17T04:53:56.455Z,42
2022-08-17T04:54:57.434Z,44
2022-08-17T04:55:58.495Z,45
2022-08-17T04:56:59.491Z,43
2022-08-17T04:58:00.475Z,42
2022-08-17T04:59:01.602Z,42
2022-08-17T05:00:02.567Z,40
2022-08-17T05:01:03.679Z,40
2022-08-17T05:02:05.514Z,39
2022-08-17T05:03:06.556Z,38
2022-08-17T05:04:18.364Z,38
2022-08-17T05:05:08.494Z,40
2022-08-17T05:06:09.435Z,40
2022-08-17T05:07:10.491Z,42
2022-08-17T05:08:11.584Z,40
2022-08-17T05:09:12.576Z,45
2022-08-17T05:10:13.455Z,43
2022-08-17T05:11:14.475Z,48
2022-08-17T05:12:15.475Z,49
2022-08-17T05:13:16.537Z,48
2022-08-17T05:14:17.612Z,49
2022-08-17T05:15:19.654Z,54
2022-08-17T05:16:21.529Z,53
2022-08-17T05:17:22.556Z,53
2022-08-17T05:18:24.632Z,55
2022-08-17T05:19:24.565Z,54
2022-08-17T05:20:25.505Z,53
2022-08-17T05:21:26.547Z,50
2022-08-17T05:22:27.502Z,52
2022-08-17T05:23:28.674Z,53
2022-08-17T05:24:38.262Z,53
2022-08-17T05:25:30.534Z,54
2022-08-17T05:26:31.496Z,55
2022-08-17T05:27:35.370Z,51
2022-08-17T05:28:33.497Z,53
2022-08-17T05:29:35.369Z,51
2022-08-17T05:30:35.548Z,49
2022-08-17T05:31:36.539Z,48
2022-08-17T05:32:40.288Z,49
2022-08-17T05:33:42.658Z,49
2022-08-17T05:34:40.595Z,46
2022-08-17T05:35:41.575Z,48
2022-08-17T05:36:44.433Z,44
2022-08-17T05:37:43.484Z,40
2022-08-17T05:38:44.543Z,42
2022-08-17T05:39:45.543Z,40
2022-08-17T05:40:46.560Z,39
2022-08-17T05:41:47.505Z,36
2022-08-17T05:42:48.576Z,35
2022-08-17T05:43:53.029Z,35
2022-08-17T05:44:50.504Z,36
2022-08-17T05:45:54.184Z,35
2022-08-17T05:46:52.636Z,35
2022-08-17T05:47:53.577Z,34
2022-08-17T05:48:54.537Z,34
2022-08-17T05:49:56.522Z,36
2022-08-17T05:50:57.632Z,35
2022-08-17T05:51:58.503Z,35
2022-08-17T05:52:59.555Z,35
2022-08-17T05:54:00.558Z,36
2022-08-17T05:55:01.683Z,34
2022-08-17T05:56:02.575Z,36
2022-08-17T05:57:03.616Z,34
2022-08-17T05:58:05.672Z,34
2022-08-17T05:59:07.500Z,33
2022-08-17T06:00:08.615Z,32
2022-08-17T06:01:09.646Z,34
2022-08-17T06:02:10.558Z,33
2022-08-17T06:03:11.604Z,32
2022-08-17T06:04:12.583Z,31
2022-08-17T06:05:13.539Z,31
2022-08-17T06:06:14.597Z,30
2022-08-17T06:07:15.623Z,30
2022-08-17T06:08:16.536Z,31
2022-08-17T06:09:21.265Z,31
2022-08-17T06:10:18.515Z,30
2022-08-17T06:11:19.804Z,30
2022-08-17T06:12:20.473Z,31
2022-08-17T06:13:21.575Z,29
2022-08-17T06:14:22.575Z,28
2022-08-17T06:15:23.581Z,28
2022-08-17T06:16:26.077Z,28
2022-08-17T06:17:25.495Z,28
2022-08-17T06:18:26.596Z,27
2022-08-17T06:19:27.591Z,26
2022-08-17T06:20:28.585Z,26
2022-08-17T06:21:32.189Z,26
2022-08-17T06:22:31.536Z,26
2022-08-17T06:23:32.735Z,26
2022-08-17T06:24:34.526Z,25
2022-08-17T06:25:35.611Z,26
2022-08-17T06:26:41.028Z,24
2022-08-17T06:27:37.524Z,24
2022-08-17T06:28:38.575Z,25
2022-08-17T06:29:39.636Z,25
2022-08-17T06:30:57.717Z,26
2022-08-17T06:31:41.672Z,25
2022-08-17T06:32:42.584Z,23
2022-08-17T06:33:43.557Z,24
2022-08-17T06:34:44.577Z,24
2022-08-17T06:35:45.657Z,24
2022-08-17T06:36:46.597Z,24
2022-08-17T06:37:47.617Z,24
2022-08-17T06:38:48.592Z,25
2022-08-17T06:39:52.785Z,24
2022-08-17T06:40:54.558Z,25
2022-08-17T06:41:55.576Z,24
2022-08-17T06:43:02.495Z,24
2022-08-17T06:43:57.517Z,25
2022-08-17T06:44:58.576Z,25
2022-08-17T06:45:59.597Z,26
2022-08-17T06:47:00.662Z,24
2022-08-17T06:48:01.598Z,24
2022-08-17T06:49:02.835Z,25
2022-08-17T06:50:04.716Z,24
2022-08-17T06:51:06.696Z,24
2022-08-17T06:52:07.596Z,24
2022-08-17T06:53:08.476Z,25
2022-08-17T06:54:09.602Z,24
2022-08-17T06:55:17.700Z,23
2022-08-17T06:56:11.636Z,22
2022-08-17T06:57:12.642Z,22
2022-08-17T06:58:16.543Z,24
2022-08-17T06:59:15.743Z,24
2022-08-17T07:00:17.729Z,25
2022-08-17T07:01:19.797Z,23
2022-08-17T07:02:28.873Z,24
2022-08-17T07:03:23.778Z,23
2022-08-17T07:04:25.609Z,23
2022-08-17T07:05:26.689Z,23
2022-08-17T07:06:28.721Z,23
2022-08-17T07:07:30.689Z,23
2022-08-17T07:08:34.831Z,22
2022-08-17T07:09:34.780Z,21
2022-08-17T07:10:36.696Z,22
2022-08-17T07:11:38.833Z,21
2022-08-17T07:12:40.702Z,22
2022-08-17T07:13:42.661Z,23
2022-08-17T07:14:44.652Z,21
2022-08-17T07:15:45.701Z,23
2022-08-17T07:16:47.701Z,22
2022-08-17T07:17:49.701Z,24
2022-08-17T07:18:51.841Z,22
2022-08-17T07:19:54.064Z,22
2022-08-17T07:20:54.626Z,22
2022-08-17T07:21:55.682Z,21
2022-08-17T07:22:57.911Z,21
2022-08-17T07:23:57.661Z,22
2022-08-17T07:24:58.688Z,23
2022-08-17T07:26:00.689Z,22
2022-08-17T07:27:01.700Z,22
2022-08-17T07:28:03.856Z,23
2022-08-17T07:29:05.761Z,23
2022-08-17T07:30:10.515Z,22
2022-08-17T07:31:09.642Z,22
2022-08-17T07:32:10.640Z,22
2022-08-17T07:33:12.628Z,22
2022-08-17T07:34:12.695Z,22
2022-08-17T07:35:15.250Z,21
2022-08-17T07:36:14.681Z,21
2022-08-17T07:37:15.660Z,21
2022-08-17T07:38:24.438Z,23
2022-08-17T07:39:18.722Z,23
2022-08-17T07:40:20.901Z,21
2022-08-17T07:41:22.661Z,22
2022-08-17T07:42:23.902Z,21
2022-08-17T07:43:24.681Z,23
2022-08-17T07:44:25.660Z,21
2022-08-17T07:45:26.642Z,21
2022-08-17T07:46:27.722Z,23
2022-08-17T07:47:29.628Z,22
2022-08-17T07:48:30.641Z,22
2022-08-17T07:49:31.813Z,21
2022-08-17T07:50:32.721Z,22
2022-08-17T07:51:34.781Z,22
2022-08-17T07:52:48.684Z,21
2022-08-17T07:53:38.635Z,22
2022-08-17T07:54:39.741Z,22
2022-08-17T07:55:41.722Z,21
2022-08-17T07:56:42.701Z,23
2022-08-17T07:57:43.920Z,21
2022-08-17T07:58:45.690Z,21
2022-08-17T07:59:46.641Z,21
2022-08-17T08:00:47.702Z,21
2022-08-17T08:01:48.715Z,22
2022-08-17T08:02:49.681Z,21
2022-08-17T08:03:52.692Z,22
2022-08-17T08:05:01.284Z,21
2022-08-17T08:05:54.703Z,21
2022-08-17T08:06:56.782Z,19
2022-08-17T08:07:58.701Z,21
2022-08-17T08:08:59.728Z,22
2022-08-17T08:10:01.703Z,19
2022-08-17T08:11:02.685Z,21
2022-08-17T08:12:03.766Z,19
2022-08-17T08:13:05.861Z,19
2022-08-17T08:14:07.722Z,22
2022-08-17T08:15:08.721Z,22
2022-08-17T08:16:10.681Z,21
2022-08-17T08:17:11.709Z,19
2022-08-17T08:18:12.724Z,17
2022-08-17T08:19:17.211Z,21
2022-08-17T08:20:35.136Z,19
2022-08-17T08:21:17.730Z,19
2022-08-17T08:22:19.822Z,18
2022-08-17T08:23:21.723Z,19
2022-08-17T08:24:22.701Z,18
2022-08-17T08:25:23.741Z,18
2022-08-17T08:26:25.761Z,18
2022-08-17T08:27:27.644Z,18
2022-08-17T08:28:28.701Z,18
2022-08-17T08:29:29.746Z,17
2022-08-17T08:30:33.025Z,18
2022-08-17T08:31:32.797Z,17
2022-08-17T08:32:34.820Z,19
2022-08-17T08:33:36.840Z,19
2022-08-17T08:34:44.777Z,19
2022-08-17T08:35:40.703Z,19
2022-08-17T08:36:57.250Z,19
2022-08-17T08:37:43.433Z,19
2022-08-17T08:38:43.682Z,18
2022-08-17T08:39:44.736Z,18
2022-08-17T08:40:45.711Z,18
2022-08-17T08:41:46.664Z,19
2022-08-17T08:42:47.694Z,19
2022-08-17T08:43:52.766Z,19
2022-08-17T08:44:59.329Z,19
2022-08-17T08:45:51.700Z,18
2022-08-17T08:46:52.792Z,18
2022-08-17T08:47:54.741Z,16
2022-08-17T08:48:58.383Z,19
2022-08-17T08:50:03.745Z,22
2022-08-17T08:50:58.881Z,19
2022-08-17T08:52:02.769Z,19
2022-08-17T08:53:04.875Z,19
2022-08-17T08:54:06.841Z,21
2022-08-17T08:55:08.763Z,21
2022-08-17T08:56:10.721Z,21
2022-08-17T08:57:24.116Z,19
2022-08-17T08:58:30.908Z,18
2022-08-17T08:59:14.709Z,18
2022-08-17T09:00:15.833Z,19
2022-08-17T09:01:17.833Z,18
2022-08-17T09:02:19.935Z,18
2022-08-17T09:03:31.695Z,18
2022-08-17T09:04:25.659Z,18
2022-08-17T09:05:24.761Z,17
2022-08-17T09:06:32.051Z,17
2022-08-17T09:07:38.564Z,17
2022-08-17T09:08:39.721Z,17
2022-08-17T09:09:40.717Z,19
2022-08-17T09:10:41.822Z,17
2022-08-17T09:12:01.681Z,18
2022-08-17T09:12:45.782Z,17
2022-08-17T09:13:54.508Z,18
2022-08-17T09:14:49.723Z,18
2022-08-17T09:15:50.761Z,18
2022-08-17T09:16:51.702Z,19
2022-08-17T09:18:03.653Z,17
2022-08-17T09:19:01.971Z,16
2022-08-17T09:19:55.789Z,17
2022-08-17T09:20:57.761Z,17
2022-08-17T09:22:03.869Z,17
2022-08-17T09:23:05.921Z,17
2022-08-17T09:24:07.821Z,17
2022-08-17T09:25:09.722Z,17
2022-08-17T09:26:10.725Z,15
2022-08-17T09:27:11.721Z,15
2022-08-17T09:28:12.950Z,16
2022-08-17T09:29:14.821Z,16
2022-08-17T09:30:16.971Z,17
2022-08-17T09:31:18.842Z,17
2022-08-17T09:32:20.844Z,17
2022-08-17T09:33:22.862Z,17
2022-08-17T09:34:24.901Z,18
2022-08-17T09:35:32.862Z,17
2022-08-17T09:36:26.740Z,17
2022-08-17T09:37:27.761Z,18
2022-08-17T09:38:32.269Z,18
2022-08-17T09:39:30.931Z,18
2022-08-17T09:40:32.885Z,17
2022-08-17T09:41:34.722Z,17
2022-08-17T09:42:35.742Z,18
2022-08-17T09:43:36.802Z,17
2022-08-17T09:44:38.785Z,17
2022-08-17T09:45:39.755Z,18
2022-08-17T09:46:40.867Z,19
2022-08-17T09:47:42.754Z,21
2022-08-17T09:48:43.841Z,18
2022-08-17T09:49:45.802Z,19
2022-08-17T09:50:55.655Z,18
2022-08-17T09:51:48.821Z,21
2022-08-17T09:52:50.867Z,19
2022-08-17T09:53:52.842Z,19
2022-08-17T09:54:55.182Z,19
2022-08-17T09:55:56.929Z,18
2022-08-17T09:57:18.391Z,19
2022-08-17T09:58:00.741Z,19
2022-08-17T09:59:01.753Z,19
2022-08-17T10:00:03.055Z,19
2022-08-17T10:01:04.895Z,22
2022-08-17T10:02:06.900Z,18
2022-08-17T10:03:08.824Z,21
2022-08-17T10:04:10.810Z,22
2022-08-17T10:05:11.849Z,21
2022-08-17T10:06:13.739Z,18
2022-08-17T10:07:14.808Z,19
2022-08-17T10:08:15.824Z,18
2022-08-17T10:09:17.825Z,17
2022-08-17T10:10:19.923Z,19
2022-08-17T10:11:21.920Z,18
2022-08-17T10:12:23.701Z,19
2022-08-17T10:13:24.861Z,19
2022-08-17T10:14:37.118Z,17
2022-08-17T10:15:28.882Z,17
2022-08-17T10:16:30.924Z,18
2022-08-17T10:17:33.020Z,18
2022-08-17T10:18:34.883Z,17
2022-08-17T10:19:36.900Z,18
2022-08-17T10:20:38.877Z,17
2022-08-17T10:21:40.802Z,18
2022-08-17T10:22:42.710Z,17
2022-08-17T10:23:43.801Z,17
2022-08-17T10:25:02.314Z,17
2022-08-17T10:25:54.923Z,17
2022-08-17T10:26:56.986Z,17
2022-08-17T10:27:51.030Z,17
2022-08-17T10:28:52.841Z,17
2022-08-17T10:29:53.809Z,19
2022-08-17T10:31:05.438Z,17
2022-08-17T10:31:56.821Z,17
2022-08-17T10:32:58.816Z,17
2022-08-17T10:34:00.801Z,17
2022-08-17T10:35:02.933Z,17
2022-08-17T10:36:08.774Z,17
2022-08-17T10:37:06.842Z,18
2022-08-17T10:38:08.781Z,18
2022-08-17T10:39:10.803Z,18
2022-08-17T10:40:11.797Z,17
2022-08-17T10:41:12.821Z,18
2022-08-17T10:42:14.876Z,17
2022-08-17T10:43:16.841Z,17
2022-08-17T10:44:36.811Z,17
2022-08-17T10:45:19.828Z,15
2022-08-17T10:46:29.988Z,17
2022-08-17T10:47:22.781Z,18
2022-08-17T10:48:23.916Z,19
2022-08-17T10:49:25.820Z,17
2022-08-17T10:50:27.788Z,17
2022-08-17T10:51:28.848Z,18
2022-08-17T10:52:33.380Z,18
2022-08-17T10:53:34.842Z,18
2022-08-17T10:54:36.821Z,17
2022-08-17T10:55:37.841Z,18
2022-08-17T10:56:38.841Z,17
2022-08-17T10:57:40.827Z,17
2022-08-17T10:58:42.781Z,17
2022-08-17T10:59:43.801Z,17
2022-08-17T11:00:44.975Z,18
2022-08-17T11:01:46.921Z,18
2022-08-17T11:02:49.099Z,17
2022-08-17T11:03:50.800Z,18
2022-08-17T11:04:51.800Z,17
2022-08-17T11:05:52.900Z,17
2022-08-17T11:06:54.821Z,18
2022-08-17T11:07:56.845Z,18
2022-08-17T11:08:58.879Z,18
2022-08-17T11:10:00.880Z,18
2022-08-17T11:11:02.960Z,18
2022-08-17T11:12:04.869Z,17
2022-08-17T11:13:06.881Z,18
2022-08-17T11:14:08.764Z,18
2022-08-17T11:15:09.860Z,18
2022-08-17T11:16:11.799Z,18
2022-08-17T11:17:12.814Z,18
2022-08-17T11:18:13.830Z,18
2022-08-17T11:19:15.898Z,17
2022-08-17T11:20:17.879Z,18
2022-08-17T11:21:19.786Z,18
2022-08-17T11:22:20.759Z,18
2022-08-17T11:23:21.829Z,18
2022-08-17T11:24:22.853Z,17
2022-08-17T11:25:24.820Z,17
2022-08-17T11:26:25.824Z,18
2022-08-17T11:27:27.825Z,17
2022-08-17T11:28:28.875Z,17
2022-08-17T11:29:30.980Z,17
2022-08-17T11:30:32.909Z,17
2022-08-17T11:31:38.260Z,19
2022-08-17T11:32:36.861Z,18
2022-08-17T11:33:38.881Z,17
2022-08-17T11:34:40.941Z,16
2022-08-17T11:35:42.780Z,19
2022-08-17T11:37:45.840Z,19
2022-08-17T11:38:47.842Z,18
2022-08-17T11:39:50.251Z,19
2022-08-17T11:40:51.799Z,21
2022-08-17T11:41:52.819Z,19
2022-08-17T11:42:54.813Z,17
2022-08-17T11:43:55.901Z,19
2022-08-17T11:44:57.920Z,19
2022-08-17T11:45:59.968Z,19
2022-08-17T11:47:01.879Z,19
2022-08-17T11:48:26.367Z,19
2022-08-17T11:49:05.984Z,19
2022-08-17T11:50:07.981Z,18
2022-08-17T11:51:09.826Z,18
2022-08-17T11:52:10.868Z,18
2022-08-17T11:53:11.813Z,17
2022-08-17T11:54:32.064Z,17
2022-08-17T11:55:34.354Z,18
2022-08-17T11:56:16.940Z,17
2022-08-17T11:57:18.907Z,18
2022-08-17T11:58:20.921Z,18
2022-08-17T11:59:22.839Z,18
2022-08-17T12:00:23.900Z,18
2022-08-17T12:01:26.127Z,18
2022-08-17T12:02:27.839Z,19
2022-08-17T12:03:28.929Z,19
2022-08-17T12:04:30.858Z,18
2022-08-17T12:05:31.835Z,18
2022-08-17T12:06:32.940Z,18
2022-08-17T12:07:34.819Z,17
2022-08-17T12:08:35.920Z,17
2022-08-17T12:09:37.920Z,16
2022-08-17T12:10:39.893Z,17
2022-08-17T12:11:54.863Z,15
2022-08-17T12:12:43.968Z,16
2022-08-17T12:13:45.859Z,17
2022-08-17T12:15:12.614Z,18
2022-08-17T12:15:49.879Z,18
2022-08-17T12:16:50.867Z,16
2022-08-17T12:17:52.555Z,16
2022-08-17T12:18:53.879Z,17
2022-08-17T12:19:54.939Z,17
2022-08-17T12:20:56.959Z,17
2022-08-17T12:21:57.831Z,17
2022-08-17T12:22:58.799Z,16
2022-08-17T12:24:00.819Z,17
2022-08-17T12:25:01.779Z,17
2022-08-17T12:26:02.926Z,17
2022-08-17T12:27:04.916Z,17
2022-08-17T12:28:07.763Z,17
2022-08-17T12:29:09.294Z,17
2022-08-17T12:30:09.960Z,17
2022-08-17T12:31:11.987Z,17
2022-08-17T12:32:13.919Z,17
2022-08-17T12:33:25.165Z,19
2022-08-17T12:34:17.938Z,18
2022-08-17T12:35:19.919Z,18
2022-08-17T12:36:20.948Z,18
2022-08-17T12:37:22.859Z,18
2022-08-17T12:38:30.425Z,18
2022-08-17T12:39:25.866Z,18
2022-08-17T12:40:36.680Z,18
2022-08-17T12:41:37.881Z,18
2022-08-17T12:42:38.902Z,18
2022-08-17T12:43:40.981Z,18
2022-08-17T12:44:46.098Z,18
2022-08-17T12:45:44.819Z,17
2022-08-17T12:46:45.927Z,17
2022-08-17T12:47:47.859Z,17
2022-08-17T12:48:58.758Z,17
2022-08-17T12:49:50.919Z,17
2022-08-17T12:50:52.903Z,18
2022-08-17T12:51:53.880Z,17
2022-08-17T12:52:57.424Z,17
2022-08-17T12:53:55.979Z,18
2022-08-17T12:54:57.859Z,18
2022-08-17T12:55:58.921Z,17
2022-08-17T12:56:59.896Z,17
2022-08-17T12:58:02.298Z,17
2022-08-17T12:59:03.914Z,17
2022-08-17T13:00:06.099Z,19
2022-08-17T13:01:08.068Z,17
2022-08-17T13:02:10.104Z,18
2022-08-17T13:03:12.567Z,17
2022-08-17T13:04:13.907Z,19
2022-08-17T13:05:14.921Z,19
2022-08-17T13:06:16.879Z,18
2022-08-17T13:07:17.887Z,19
2022-08-17T13:08:19.007Z,18
2022-08-17T13:09:20.868Z,18
2022-08-17T13:10:21.953Z,21
2022-08-17T13:11:23.939Z,17
2022-08-17T13:12:26.000Z,17
2022-08-17T13:13:28.000Z,18
2022-08-17T13:14:30.039Z,18
2022-08-17T13:15:31.919Z,16
2022-08-17T13:16:33.920Z,16
2022-08-17T13:17:35.906Z,19
2022-08-17T13:18:36.899Z,19
2022-08-17T13:19:39.785Z,17
2022-08-17T13:20:38.919Z,18
2022-08-17T13:21:40.861Z,18
2022-08-17T13:22:41.879Z,18
2022-08-17T13:23:48.813Z,17
2022-08-17T13:24:43.891Z,18
2022-08-17T13:25:44.921Z,17
2022-08-17T13:26:45.859Z,18
2022-08-17T13:27:46.949Z,18
2022-08-17T13:28:48.920Z,18
2022-08-17T13:29:51.128Z,17
2022-08-17T13:30:50.989Z,17
2022-08-17T13:31:56.546Z,17
2022-08-17T13:32:54.959Z,18
2022-08-17T13:33:56.999Z,18
2022-08-17T13:35:06.551Z,19
2022-08-17T13:36:00.969Z,19
2022-08-17T13:37:02.979Z,21
2022-08-17T13:38:04.963Z,19
2022-08-17T13:39:07.138Z,19
2022-08-17T13:40:09.160Z,18
2022-08-17T13:41:10.923Z,18
2022-08-17T13:42:13.716Z,18
2022-08-17T13:43:14.882Z,18
2022-08-17T13:44:15.896Z,17
2022-08-17T13:45:22.481Z,17
2022-08-17T13:46:18.959Z,18
2022-08-17T13:47:20.939Z,18
2022-08-17T13:48:21.940Z,17
2022-08-17T13:49:23.990Z,18
2022-08-17T13:50:25.919Z,17
2022-08-17T13:51:26.928Z,18
2022-08-17T13:52:28.981Z,17
2022-08-17T13:53:31.136Z,17
2022-08-17T13:54:32.981Z,18
2022-08-17T13:55:34.959Z,18
2022-08-17T13:56:38.983Z,19
2022-08-17T13:57:38.913Z,18
2022-08-17T13:58:39.959Z,18
2022-08-17T13:59:53.995Z,16
2022-08-17T14:00:42.948Z,17
2022-08-17T14:01:46.609Z,17
2022-08-17T14:02:45.977Z,17
2022-08-17T14:03:47.914Z,17
2022-08-17T14:04:48.923Z,17
2022-08-17T14:05:49.894Z,17
2022-08-17T14:06:52.750Z,17
2022-08-17T14:07:51.943Z,18
2022-08-17T14:08:52.875Z,17
2022-08-17T14:09:53.856Z,17
2022-08-17T14:10:54.814Z,18
2022-08-17T14:11:55.855Z,19
2022-08-17T14:12:56.876Z,19
2022-08-17T14:13:57.954Z,18
2022-08-17T14:14:58.894Z,18
2022-08-17T14:15:59.914Z,19
2022-08-17T14:17:00.937Z,16
2022-08-17T14:18:01.934Z,16
2022-08-17T14:19:02.895Z,18
2022-08-17T14:20:03.916Z,18
2022-08-17T14:21:04.974Z,18
2022-08-17T14:22:05.857Z,18
2022-08-17T14:23:06.834Z,18
2022-08-17T14:24:07.836Z,18
2022-08-17T14:25:10.556Z,18
2022-08-17T14:26:09.977Z,17
2022-08-17T14:27:10.835Z,18
2022-08-17T14:28:11.835Z,17
2022-08-17T14:29:15.073Z,17
2022-08-17T14:30:13.942Z,17
2022-08-17T14:31:14.981Z,17
2022-08-17T14:32:15.874Z,17
2022-08-17T14:33:16.915Z,17
2022-08-17T14:34:17.923Z,17
2022-08-17T14:35:18.897Z,18
2022-08-17T14:36:20.003Z,16
2022-08-17T14:37:20.857Z,17
2022-08-17T14:38:21.856Z,16
2022-08-17T14:39:22.874Z,17